createdAt,value
2018-01-15T00:00:13.760Z,0.3
2018-01-15T00:15:03.048Z,0.4
2018-01-15T00:30:02.920Z,0.4
2018-01-15T00:45:03.618Z,0.4
2018-01-15T01:00:15.927Z,0.3
2018-01-15T01:15:02.597Z,0.2
2018-01-15T01:30:05.825Z,0.1
2018-01-15T01:45:03.847Z,0.1
2018-01-15T02:00:02.427Z,0.1
2018-01-15T02:30:03.430Z,0
2018-01-15T02:45:07.947Z,-0.1
2018-01-15T03:00:05.657Z,0
2018-01-15T03:30:18.633Z,0
2018-01-15T03:45:05.183Z,-0.1
2018-01-15T04:00:06.989Z,-0.1
2018-01-15T04:15:02.479Z,-0.2
2018-01-15T04:30:11.363Z,-0.5
2018-01-15T04:45:02.940Z,-0.4
2018-01-15T05:01:12.180Z,-0.8
2018-01-15T05:15:02.749Z,-0.9
2018-01-15T05:30:05.262Z,-1
2018-01-15T05:45:03.003Z,-0.9
2018-01-15T06:00:02.599Z,-1.1
2018-01-15T06:15:42.777Z,-1.1
2018-01-15T06:30:09.654Z,-1.2
2018-01-15T06:45:03.129Z,-0.9
2018-01-15T07:00:13.006Z,-0.8
2018-01-15T07:15:02.727Z,-0.6
2018-01-15T07:30:03.524Z,-0.4
2018-01-15T07:45:03.120Z,-0.4
2018-01-15T08:00:02.916Z,-0.2
2018-01-15T08:15:03.389Z,-0.4
2018-01-15T08:30:03.021Z,-0.2
2018-01-15T08:45:02.943Z,-0.2
2018-01-15T09:00:03.552Z,0
2018-01-15T09:15:02.707Z,-0.1
2018-01-15T09:30:08.285Z,0.2
2018-01-15T09:45:18.972Z,0.1
2018-01-15T10:00:02.569Z,0.4
2018-01-15T10:15:03.083Z,0.4
2018-01-15T10:30:02.832Z,0.6
2018-01-15T10:45:05.351Z,0.8
2018-01-15T11:00:02.828Z,0.9
2018-01-15T11:15:03.613Z,1.1
2018-01-15T11:30:08.927Z,1.3
2018-01-15T11:45:03.337Z,1.3
2018-01-15T12:00:02.792Z,1.5
2018-01-15T12:15:03.105Z,1.9
2018-01-15T12:30:40.247Z,2.4
2018-01-15T12:45:31.459Z,2.7
2018-01-15T13:00:03.195Z,2.9
2018-01-15T13:15:02.809Z,2.8
2018-01-15T13:30:03.307Z,2.8
2018-01-15T13:45:26.540Z,2.8
2018-01-15T14:00:03.032Z,2.8
2018-01-15T14:15:20.887Z,2.7
2018-01-15T14:30:02.349Z,2.6
2018-01-15T14:45:02.644Z,2.4
2018-01-15T15:00:03.119Z,1.9
2018-01-15T15:16:33.859Z,1.3
2018-01-15T15:30:02.296Z,1.1
2018-01-15T15:45:02.561Z,0.8
2018-01-15T16:00:03.111Z,0.5
2018-01-15T16:15:02.969Z,0.4
2018-01-15T16:30:07.017Z,0.2
2018-01-15T16:45:02.444Z,0.2
2018-01-15T17:00:02.708Z,0.1
2018-01-15T17:15:03.043Z,-0.1
2018-01-15T17:30:03.193Z,-0.2
2018-01-15T17:45:08.532Z,-0.2
2018-01-15T18:00:02.873Z,-0.2
2018-01-15T18:15:03.637Z,-0.4
2018-01-15T18:30:06.202Z,-0.3
2018-01-15T18:45:02.702Z,-0.6
2018-01-15T19:00:03.181Z,-0.6
2018-01-15T19:15:02.525Z,-0.6
2018-01-15T19:30:04.599Z,-0.6
2018-01-15T19:45:11.756Z,-0.6
2018-01-15T20:15:02.372Z,-0.6
2018-01-15T20:30:03.061Z,-0.6
2018-01-15T20:45:02.831Z,-0.6
2018-01-15T21:00:03.223Z,-0.6
2018-01-15T21:15:02.566Z,-0.8
2018-01-15T21:30:17.863Z,-0.8
2018-01-15T21:45:02.418Z,-0.8
2018-01-15T22:00:02.693Z,-0.8
2018-01-15T22:15:03.049Z,-0.6
2018-01-15T22:30:02.498Z,-0.6
2018-01-15T22:45:02.831Z,-0.6
2018-01-15T23:00:03.611Z,-0.6
2018-01-15T23:15:03.172Z,-0.6
2018-01-15T23:30:02.548Z,-0.6
2018-01-15T23:45:55.641Z,-0.5
